• Join FlightAware (Why Join?)
  • Login
  • US Flag 
11:54AM EDT


 

Airport Tracker/Info


-or-


 

Live Flight TrackerFlight Track Log ✈ OPT332 ✈ 04-Nov-2013 ✈ MMSD / SJD - KLAX

Flight Track Log - Related Links

Times and Time Zones

All times are in EST time to prevent confusion due to time zone crossing. See the OPT332 flight status page for this flight to view local times or setup timezone preferences in your user account.

Time Position Orientation Groundspeed Altitude Reporting Facility
EST Latitude Longitude Course Direction KTS MPH feet Rate Location/Type
05:40PM 32.3306 -115.3706 323° Northwest 412 474 43,000  Level Los Angeles Center
05:41PM 32.4411 -115.4678 323° Northwest 414 476 43,000  Level Los Angeles Center
05:42PM 32.5322 -115.5469 324° Northwest 409 471 43,000  Level Los Angeles Center
05:43PM 32.6222 -115.6272 323° Northwest 407 468 43,000 -60 Level Los Angeles Center
05:44PM 32.7011 -115.7456 308° West 383 441 42,900 -1,920 Descending Los Angeles Center
05:50PM 33.0608 -116.4318 308° West 404 465 29,400 -2,280 Descending FlightAware ADS-B
05:51PM 33.0944 -116.4966 302° West 414 476 27,800 -2,520 Descending FlightAware ADS-B
05:51PM 33.1307 -116.5666 302° West 417 480 26,500 -2,160 Descending FlightAware ADS-B
05:52PM 33.1695 -116.6172 312° West 411 473 25,500 -2,220 Descending FlightAware ADS-B
05:52PM 33.2080 -116.6578 319° Northwest 408 470 24,300 -2,220 Descending FlightAware ADS-B
05:53PM 33.2648 -116.7192 318° Northwest 399 459 23,000 -1,980 Descending FlightAware ADS-B
05:54PM 33.3084 -116.7661 318° Northwest 389 448 22,000 -1,980 Descending FlightAware ADS-B
05:54PM 33.3490 -116.8097 318° Northwest 380 437 21,000 -1,860 Descending FlightAware ADS-B
05:55PM 33.3885 -116.8524 318° Northwest 372 428 20,100 -1,920 Descending FlightAware ADS-B
05:55PM 33.4269 -116.8939 318° Northwest 370 426 19,100 -2,160 Descending FlightAware ADS-B
05:56PM 33.4731 -116.9437 318° Northwest 367 422 17,700 -2,100 Descending FlightAware ADS-B
05:56PM 33.5292 -117.0046 318° Northwest 369 425 16,300 -1,200 Descending FlightAware ADS-B
05:57PM 33.5790 -117.0585 318° Northwest 360 414 16,100 -180 Descending FlightAware ADS-B
05:58PM 33.6140 -117.0965 318° Northwest 355 409 16,100  Level FlightAware ADS-B
05:59PM 33.6875 -117.1765 318° Northwest 358 412 16,100  Level FlightAware ADS-B
05:59PM 33.7349 -117.2282 318° Northwest 371 427 16,100  Level FlightAware ADS-B
06:00PM 33.7762 -117.2734 318° Northwest 356 410 16,100  Level FlightAware ADS-B
06:00PM 33.8097 -117.3100 318° Northwest 331 381 16,100 -360 Level FlightAware ADS-B
06:01PM 33.8528 -117.3571 318° Northwest 324 373 15,700 -1,500 Descending FlightAware ADS-B
06:01PM 33.8854 -117.3930 318° Northwest 326 375 14,400 -2,640 Descending FlightAware ADS-B
06:02PM 33.9312 -117.4432 318° Northwest 319 367 12,600 -1,920 Descending FlightAware ADS-B
06:03PM 33.9665 -117.4830 317° Northwest 319 367 12,100 -780 Descending FlightAware ADS-B
06:03PM 33.9738 -117.4949 306° West 318 366 12,100 -900 Level FlightAware ADS-B
06:04PM 34.0035 -117.5767 294° West 325 374 11,200 -1,380 Descending FlightAware ADS-B
06:04PM 34.0113 -117.6057 288° West 328 377 10,600 -2,040 Descending FlightAware ADS-B
06:04PM 34.0116 -117.6327 271° West 326 375 10,200 -720 Descending FlightAware ADS-B
06:05PM 34.0063 -117.6820 263° West 330 380 10,100 -780 Descending FlightAware ADS-B
06:05PM 34.0004 -117.7481 264° West 334 384 9,400 -1,260 Descending FlightAware ADS-B
06:06PM 33.9944 -117.8108 263° West 315 362 8,700 -1,380 Descending FlightAware ADS-B
06:06PM 33.9906 -117.8489 263° West 296 341 8,100 -1,680 Descending FlightAware ADS-B
06:07PM 33.9855 -117.9020 263° West 280 322 7,100 -1,440 Descending FlightAware ADS-B
06:07PM 33.9824 -117.9329 263° West 277 319 6,800 -1,560 Descending FlightAware ADS-B
06:07PM 33.9787 -117.9708 263° West 270 311 6,000 -2,040 Descending FlightAware ADS-B
06:08PM 33.9754 -118.0050 263° West 272 313 5,200 -780 Descending FlightAware ADS-B
06:09PM 33.9682 -118.0769 263° West 271 312 5,100 -840 Descending FlightAware ADS-B
06:09PM 33.9667 -118.1333 263° West 270 311 4,100 -1,320 Descending Southern California TRACON
06:10PM 33.9572 -118.1964 260° West 265 305 3,200 -1,020 Descending Los Angeles Center
06:11PM 33.9489 -118.2714 262° West 246 283 2,200 -900 Descending Los Angeles Center
06:12PM 33.9453 -118.3147 264° West 199 229 1,400 -900 Descending Los Angeles Center
06:13PM 33.9400 -118.3683 263° West 137 158 400 -600 Descending Los Angeles Center
06:14PM 33.9369 -118.4008 264° West 127 146 200 -240 Descending Los Angeles Center
06:16PM 33.9333 -118.4000 270° West  Level FlightAware Approximate
06:23PM 33.9425 -118.4081 270° West  Level Estimated